sensor_id;sensor_type;location;lat;lon;timestamp;P1;durP1;ratioP1;P2;durP2;ratioP2
67500;SDS011;54349;52.528;19.760;2023-08-12T11:18:08;4.40;;;2.20;;
67500;SDS011;54349;52.528;19.760;2023-08-12T11:21:14;4.60;;;2.20;;
67500;SDS011;54349;52.528;19.760;2023-08-12T11:23:44;5.40;;;2.30;;
67500;SDS011;54349;52.528;19.760;2023-08-12T11:26:47;4.20;;;2.00;;
67500;SDS011;54349;52.528;19.760;2023-08-12T11:29:17;3.70;;;1.80;;
67500;SDS011;54349;52.528;19.760;2023-08-12T11:32:18;3.70;;;2.00;;
67500;SDS011;54349;52.528;19.760;2023-08-12T11:35:31;3.90;;;2.10;;
67500;SDS011;54349;52.528;19.760;2023-08-12T13:18:02;3.30;;;2.00;;
67500;SDS011;54349;52.528;19.760;2023-08-12T13:20:32;3.50;;;2.00;;
67500;SDS011;54349;52.528;19.760;2023-08-12T13:23:31;2.80;;;1.80;;
67500;SDS011;54349;52.528;19.760;2023-08-12T13:26:03;3.00;;;2.00;;
67500;SDS011;54349;52.528;19.760;2023-08-12T13:28:31;3.70;;;2.00;;
67500;SDS011;54349;52.528;19.760;2023-08-12T13:31:14;3.30;;;2.00;;
67500;SDS011;54349;52.528;19.760;2023-08-12T13:33:43;5.00;;;2.30;;
67500;SDS011;54349;52.528;19.760;2023-08-12T14:24:12;3.90;;;2.00;;
67500;SDS011;54349;52.528;19.760;2023-08-12T14:26:47;3.60;;;1.80;;
67500;SDS011;54349;52.528;19.760;2023-08-12T14:29:30;5.20;;;2.00;;
67500;SDS011;54349;52.528;19.760;2023-08-12T14:32:02;4.30;;;2.00;;
67500;SDS011;54349;52.528;19.760;2023-08-12T14:34:30;4.90;;;2.10;;
67500;SDS011;54349;52.528;19.760;2023-08-12T14:37:02;6.30;;;2.20;;
67500;SDS011;54349;52.528;19.760;2023-08-12T14:39:49;4.10;;;2.20;;
67500;SDS011;54349;52.528;19.760;2023-08-12T17:23:02;3.20;;;2.10;;
67500;SDS011;54349;52.528;19.760;2023-08-12T17:25:40;3.10;;;2.10;;
67500;SDS011;54349;52.528;19.760;2023-08-12T17:28:20;3.30;;;2.00;;
67500;SDS011;54349;52.528;19.760;2023-08-12T17:30:52;3.70;;;2.10;;
67500;SDS011;54349;52.528;19.760;2023-08-12T17:37:01;4.70;;;2.30;;
67500;SDS011;54349;52.528;19.760;2023-08-12T17:39:31;3.80;;;2.10;;
67500;SDS011;54349;52.528;19.760;2023-08-12T17:49:51;4.00;;;2.10;;
67500;SDS011;54349;52.528;19.760;2023-08-12T17:52:20;3.70;;;2.10;;
67500;SDS011;54349;52.528;19.760;2023-08-12T17:54:54;4.00;;;2.10;;
67500;SDS011;54349;52.528;19.760;2023-08-12T17:57:30;5.00;;;2.50;;
67500;SDS011;54349;52.528;19.760;2023-08-12T17:59:59;5.90;;;2.50;;
67500;SDS011;54349;52.528;19.760;2023-08-12T18:02:30;4.60;;;2.50;;
67500;SDS011;54349;52.528;19.760;2023-08-12T18:40:00;3.90;;;2.20;;
67500;SDS011;54349;52.528;19.760;2023-08-12T18:42:30;3.10;;;1.80;;
67500;SDS011;54349;52.528;19.760;2023-08-12T18:45:17;4.60;;;2.50;;
67500;SDS011;54349;52.528;19.760;2023-08-12T18:47:47;3.70;;;2.40;;
67500;SDS011;54349;52.528;19.760;2023-08-12T18:50:51;3.40;;;2.20;;
67500;SDS011;54349;52.528;19.760;2023-08-12T18:53:31;5.70;;;2.50;;
67500;SDS011;54349;52.528;19.760;2023-08-12T18:56:04;4.80;;;2.40;;
67500;SDS011;54349;52.528;19.760;2023-08-12T19:33:33;4.60;;;2.60;;
67500;SDS011;54349;52.528;19.760;2023-08-12T19:36:03;6.40;;;2.90;;
67500;SDS011;54349;52.528;19.760;2023-08-12T19:38:42;4.70;;;2.60;;
67500;SDS011;54349;52.528;19.760;2023-08-12T19:41:29;4.30;;;2.70;;
67500;SDS011;54349;52.528;19.760;2023-08-12T19:43:59;6.10;;;2.50;;
67500;SDS011;54349;52.528;19.760;2023-08-12T19:46:27;5.40;;;2.60;;
67500;SDS011;54349;52.528;19.760;2023-08-12T19:49:31;4.80;;;2.40;;
67500;SDS011;54349;52.528;19.760;2023-08-12T21:40:03;3.90;;;2.30;;
67500;SDS011;54349;52.528;19.760;2023-08-12T21:42:40;4.70;;;2.60;;
67500;SDS011;54349;52.528;19.760;2023-08-12T21:45:30;5.20;;;2.70;;
67500;SDS011;54349;52.528;19.760;2023-08-12T21:48:00;4.40;;;2.50;;
67500;SDS011;54349;52.528;19.760;2023-08-12T21:51:01;5.00;;;2.80;;
67500;SDS011;54349;52.528;19.760;2023-08-12T21:53:36;4.60;;;2.80;;
67500;SDS011;54349;52.528;19.760;2023-08-12T21:56:11;5.10;;;3.00;;
67500;SDS011;54349;52.528;19.760;2023-08-12T22:46:25;4.70;;;2.20;;
67500;SDS011;54349;52.528;19.760;2023-08-12T22:49:17;3.00;;;2.10;;
67500;SDS011;54349;52.528;19.760;2023-08-12T22:51:50;3.10;;;1.90;;
67500;SDS011;54349;52.528;19.760;2023-08-12T22:54:19;2.90;;;1.90;;
67500;SDS011;54349;52.528;19.760;2023-08-12T22:56:48;4.60;;;2.30;;
67500;SDS011;54349;52.528;19.760;2023-08-12T23:00:16;4.10;;;2.40;;
67500;SDS011;54349;52.528;19.760;2023-08-12T23:02:58;4.70;;;2.60;;
67500;SDS011;54349;52.528;19.760;2023-08-12T23:05:32;4.00;;;2.40;;
67500;SDS011;54349;52.528;19.760;2023-08-12T23:08:00;4.10;;;2.20;;
67500;SDS011;54349;52.528;19.760;2023-08-12T23:10:49;3.20;;;2.10;;
67500;SDS011;54349;52.528;19.760;2023-08-12T23:13:17;3.30;;;2.00;;
